River John, Canada
Current Conditions -  °F | °C
As of 1:00 PM on Wednesday 22 Oct 2014 (Local Time) from CYYG Reporting Station
Broken Clouds Broken Clouds  
Wind Chill: 52°   Ceiling: 10000
Heat Index: 52°   Visibility: 15mi
Dew Point: 43°   Wind: 14mph
Humidity: 71%   Direction: 50°NE
Pressure: 30.38"   Gusts: 20mph
Location:  45.73°N, 63.05°W
Report Text: CYYG 221600Z 05012G17KT 15SM FEW025 BKN100 BKN200 11/06 A3038 RMK CU1AC5CS1 SLP291
Loading
Personal Weather Stations






























Interactive Weather Map
Tropical Storm Tracking
New forecast layout! Learn more

10-Day Weather Forecast

Advertisements
Track Severe Weather on mobile